sensor_id;sensor_type;location;lat;lon;timestamp;temperature;humidity
22288;DHT22;11312;51.464;6.968;2023-04-03T00:00:14;2.00;99.90
22288;DHT22;11312;51.464;6.968;2023-04-03T00:02:40;1.80;99.90
22288;DHT22;11312;51.464;6.968;2023-04-03T00:05:06;1.80;99.90
22288;DHT22;11312;51.464;6.968;2023-04-03T00:07:32;1.90;99.90
22288;DHT22;11312;51.464;6.968;2023-04-03T00:09:58;1.70;99.90
22288;DHT22;11312;51.464;6.968;2023-04-03T00:12:23;1.80;99.90
22288;DHT22;11312;51.464;6.968;2023-04-03T00:14:49;1.80;99.90
22288;DHT22;11312;51.464;6.968;2023-04-03T00:17:15;1.70;99.90
22288;DHT22;11312;51.464;6.968;2023-04-03T00:19:40;1.70;99.90
22288;DHT22;11312;51.464;6.968;2023-04-03T00:22:06;1.70;99.90
22288;DHT22;11312;51.464;6.968;2023-04-03T00:24:31;1.70;99.90
22288;DHT22;11312;51.464;6.968;2023-04-03T00:26:57;1.60;99.90
22288;DHT22;11312;51.464;6.968;2023-04-03T00:29:23;1.60;99.90
22288;DHT22;11312;51.464;6.968;2023-04-03T00:31:48;1.60;99.90
22288;DHT22;11312;51.464;6.968;2023-04-03T00:34:14;1.60;99.90
22288;DHT22;11312;51.464;6.968;2023-04-03T00:36:40;1.60;99.90
22288;DHT22;11312;51.464;6.968;2023-04-03T00:39:05;1.60;99.90
22288;DHT22;11312;51.464;6.968;2023-04-03T00:41:31;1.60;99.90
22288;DHT22;11312;51.464;6.968;2023-04-03T00:43:57;1.40;99.90
22288;DHT22;11312;51.464;6.968;2023-04-03T00:46:23;1.40;99.90
22288;DHT22;11312;51.464;6.968;2023-04-03T00:48:48;1.40;99.90
22288;DHT22;11312;51.464;6.968;2023-04-03T00:51:20;1.30;99.90
22288;DHT22;11312;51.464;6.968;2023-04-03T00:53:50;1.40;99.90
22288;DHT22;11312;51.464;6.968;2023-04-03T00:56:19;1.40;99.90
22288;DHT22;11312;51.464;6.968;2023-04-03T00:58:54;1.40;99.90
22288;DHT22;11312;51.464;6.968;2023-04-03T01:01:25;1.40;99.90
22288;DHT22;11312;51.464;6.968;2023-04-03T01:03:51;1.40;99.90
22288;DHT22;11312;51.464;6.968;2023-04-03T01:06:37;1.40;99.90
22288;DHT22;11312;51.464;6.968;2023-04-03T01:09:03;1.30;99.90
22288;DHT22;11312;51.464;6.968;2023-04-03T01:11:30;1.30;99.90
22288;DHT22;11312;51.464;6.968;2023-04-03T01:13:55;1.30;99.90
22288;DHT22;11312;51.464;6.968;2023-04-03T01:16:21;1.30;99.90
22288;DHT22;11312;51.464;6.968;2023-04-03T01:18:47;1.20;99.90
22288;DHT22;11312;51.464;6.968;2023-04-03T01:26:34;1.20;99.90
22288;DHT22;11312;51.464;6.968;2023-04-03T01:29:01;1.20;99.90
22288;DHT22;11312;51.464;6.968;2023-04-03T01:33:55;1.20;99.90
22288;DHT22;11312;51.464;6.968;2023-04-03T01:36:24;1.10;99.90
22288;DHT22;11312;51.464;6.968;2023-04-03T01:38:50;1.10;99.90
22288;DHT22;11312;51.464;6.968;2023-04-03T01:41:16;1.10;99.90
22288;DHT22;11312;51.464;6.968;2023-04-03T01:43:42;1.10;99.90
22288;DHT22;11312;51.464;6.968;2023-04-03T01:46:08;1.00;99.90
22288;DHT22;11312;51.464;6.968;2023-04-03T01:48:34;1.00;99.90
22288;DHT22;11312;51.464;6.968;2023-04-03T01:51:00;1.00;99.90
22288;DHT22;11312;51.464;6.968;2023-04-03T01:53:26;1.00;99.90
22288;DHT22;11312;51.464;6.968;2023-04-03T01:55:51;0.90;99.90
22288;DHT22;11312;51.464;6.968;2023-04-03T01:58:17;1.00;99.90
22288;DHT22;11312;51.464;6.968;2023-04-03T02:00:42;1.00;99.90
22288;DHT22;11312;51.464;6.968;2023-04-03T02:03:08;0.90;99.90
22288;DHT22;11312;51.464;6.968;2023-04-03T02:05:34;0.90;99.90
22288;DHT22;11312;51.464;6.968;2023-04-03T02:07:59;1.00;99.90
22288;DHT22;11312;51.464;6.968;2023-04-03T02:10:25;0.90;99.90
22288;DHT22;11312;51.464;6.968;2023-04-03T02:12:51;1.00;99.90
22288;DHT22;11312;51.464;6.968;2023-04-03T02:15:17;1.00;99.90
22288;DHT22;11312;51.464;6.968;2023-04-03T02:17:43;1.00;99.90
22288;DHT22;11312;51.464;6.968;2023-04-03T02:20:09;1.00;99.90
22288;DHT22;11312;51.464;6.968;2023-04-03T02:22:35;1.10;99.90
22288;DHT22;11312;51.464;6.968;2023-04-03T02:25:01;1.00;99.90
22288;DHT22;11312;51.464;6.968;2023-04-03T02:27:27;1.00;99.90
22288;DHT22;11312;51.464;6.968;2023-04-03T02:29:53;0.90;99.90
22288;DHT22;11312;51.464;6.968;2023-04-03T02:32:18;1.00;99.90
22288;DHT22;11312;51.464;6.968;2023-04-03T02:34:44;1.10;99.90
22288;DHT22;11312;51.464;6.968;2023-04-03T02:37:10;1.10;99.90
22288;DHT22;11312;51.464;6.968;2023-04-03T02:39:35;1.10;99.90
22288;DHT22;11312;51.464;6.968;2023-04-03T02:42:01;1.00;99.90
22288;DHT22;11312;51.464;6.968;2023-04-03T02:44:27;1.20;99.90
22288;DHT22;11312;51.464;6.968;2023-04-03T02:46:52;1.20;99.90
22288;DHT22;11312;51.464;6.968;2023-04-03T02:49:18;1.30;99.90
22288;DHT22;11312;51.464;6.968;2023-04-03T02:51:44;1.30;99.90
22288;DHT22;11312;51.464;6.968;2023-04-03T02:54:12;1.40;99.90
22288;DHT22;11312;51.464;6.968;2023-04-03T02:56:37;1.40;99.90
22288;DHT22;11312;51.464;6.968;2023-04-03T02:59:03;1.30;99.90
22288;DHT22;11312;51.464;6.968;2023-04-03T03:01:29;1.40;99.90
22288;DHT22;11312;51.464;6.968;2023-04-03T03:03:57;1.50;99.90
22288;DHT22;11312;51.464;6.968;2023-04-03T03:06:23;1.40;99.90
22288;DHT22;11312;51.464;6.968;2023-04-03T03:08:49;1.40;99.90
22288;DHT22;11312;51.464;6.968;2023-04-03T03:11:15;1.40;99.90
22288;DHT22;11312;51.464;6.968;2023-04-03T03:13:41;1.30;99.90
22288;DHT22;11312;51.464;6.968;2023-04-03T03:16:07;1.30;99.90
22288;DHT22;11312;51.464;6.968;2023-04-03T03:18:33;1.40;99.90
22288;DHT22;11312;51.464;6.968;2023-04-03T03:21:00;1.40;99.90
22288;DHT22;11312;51.464;6.968;2023-04-03T03:23:27;1.40;99.90
22288;DHT22;11312;51.464;6.968;2023-04-03T03:26:01;1.30;99.90
22288;DHT22;11312;51.464;6.968;2023-04-03T03:28:27;1.30;99.90
22288;DHT22;11312;51.464;6.968;2023-04-03T03:30:53;1.20;99.90
22288;DHT22;11312;51.464;6.968;2023-04-03T03:33:19;1.20;99.90
22288;DHT22;11312;51.464;6.968;2023-04-03T03:35:44;1.20;99.90
22288;DHT22;11312;51.464;6.968;2023-04-03T03:38:11;1.20;99.90
22288;DHT22;11312;51.464;6.968;2023-04-03T03:40:37;1.10;99.90
22288;DHT22;11312;51.464;6.968;2023-04-03T03:43:02;1.10;99.90
22288;DHT22;11312;51.464;6.968;2023-04-03T03:45:28;1.20;99.90
22288;DHT22;11312;51.464;6.968;2023-04-03T03:47:54;1.10;99.90
22288;DHT22;11312;51.464;6.968;2023-04-03T03:50:20;1.20;99.90
22288;DHT22;11312;51.464;6.968;2023-04-03T03:52:45;1.20;99.90
22288;DHT22;11312;51.464;6.968;2023-04-03T03:55:11;1.10;99.90
22288;DHT22;11312;51.464;6.968;2023-04-03T03:57:37;1.10;99.90
22288;DHT22;11312;51.464;6.968;2023-04-03T04:00:03;1.10;99.90
22288;DHT22;11312;51.464;6.968;2023-04-03T04:02:29;1.10;99.90
22288;DHT22;11312;51.464;6.968;2023-04-03T04:04:55;1.10;99.90
22288;DHT22;11312;51.464;6.968;2023-04-03T04:07:20;1.10;99.90
22288;DHT22;11312;51.464;6.968;2023-04-03T04:09:46;1.00;99.90
22288;DHT22;11312;51.464;6.968;2023-04-03T04:12:12;1.00;99.90
22288;DHT22;11312;51.464;6.968;2023-04-03T04:14:37;1.10;99.90
22288;DHT22;11312;51.464;6.968;2023-04-03T04:17:03;1.00;99.90
22288;DHT22;11312;51.464;6.968;2023-04-03T04:19:29;1.10;99.90
22288;DHT22;11312;51.464;6.968;2023-04-03T04:21:54;1.00;99.90
22288;DHT22;11312;51.464;6.968;2023-04-03T04:24:20;1.00;99.90
22288;DHT22;11312;51.464;6.968;2023-04-03T04:26:48;1.10;99.90
22288;DHT22;11312;51.464;6.968;2023-04-03T04:29:14;1.10;99.90
22288;DHT22;11312;51.464;6.968;2023-04-03T04:31:39;1.00;99.90
22288;DHT22;11312;51.464;6.968;2023-04-03T04:34:05;1.10;99.90
22288;DHT22;11312;51.464;6.968;2023-04-03T04:36:31;1.10;99.90
22288;DHT22;11312;51.464;6.968;2023-04-03T04:38:56;1.10;99.90
22288;DHT22;11312;51.464;6.968;2023-04-03T04:41:23;1.00;99.90
22288;DHT22;11312;51.464;6.968;2023-04-03T04:43:50;1.00;99.90
22288;DHT22;11312;51.464;6.968;2023-04-03T04:46:16;0.90;99.90
22288;DHT22;11312;51.464;6.968;2023-04-03T04:48:42;0.90;99.90
22288;DHT22;11312;51.464;6.968;2023-04-03T04:51:08;0.90;99.90
22288;DHT22;11312;51.464;6.968;2023-04-03T04:53:34;0.90;99.90
22288;DHT22;11312;51.464;6.968;2023-04-03T04:56:00;0.90;99.90
22288;DHT22;11312;51.464;6.968;2023-04-03T04:58:25;0.90;99.90
22288;DHT22;11312;51.464;6.968;2023-04-03T05:01:01;0.80;99.90
22288;DHT22;11312;51.464;6.968;2023-04-03T05:03:27;0.70;99.90
22288;DHT22;11312;51.464;6.968;2023-04-03T05:05:53;0.80;99.90
22288;DHT22;11312;51.464;6.968;2023-04-03T05:08:19;0.60;99.90
22288;DHT22;11312;51.464;6.968;2023-04-03T05:10:46;0.70;99.90
22288;DHT22;11312;51.464;6.968;2023-04-03T05:13:12;0.70;99.90
22288;DHT22;11312;51.464;6.968;2023-04-03T05:15:38;0.60;99.90
22288;DHT22;11312;51.464;6.968;2023-04-03T05:18:03;0.70;99.90
22288;DHT22;11312;51.464;6.968;2023-04-03T05:20:30;0.60;99.90
22288;DHT22;11312;51.464;6.968;2023-04-03T05:22:56;0.60;99.90
22288;DHT22;11312;51.464;6.968;2023-04-03T05:25:21;0.50;99.90
22288;DHT22;11312;51.464;6.968;2023-04-03T05:27:47;0.70;99.90
22288;DHT22;11312;51.464;6.968;2023-04-03T05:30:13;0.70;99.90
22288;DHT22;11312;51.464;6.968;2023-04-03T05:32:38;0.70;99.90
22288;DHT22;11312;51.464;6.968;2023-04-03T05:35:05;0.70;99.90
22288;DHT22;11312;51.464;6.968;2023-04-03T05:37:31;0.80;99.90
22288;DHT22;11312;51.464;6.968;2023-04-03T05:39:57;0.80;99.90
22288;DHT22;11312;51.464;6.968;2023-04-03T05:42:22;0.90;99.90
22288;DHT22;11312;51.464;6.968;2023-04-03T05:44:48;0.90;99.90
22288;DHT22;11312;51.464;6.968;2023-04-03T05:47:16;1.00;99.90
22288;DHT22;11312;51.464;6.968;2023-04-03T05:49:41;1.10;99.90
22288;DHT22;11312;51.464;6.968;2023-04-03T05:52:31;1.10;99.90
22288;DHT22;11312;51.464;6.968;2023-04-03T05:54:58;1.20;99.90
22288;DHT22;11312;51.464;6.968;2023-04-03T05:57:24;1.20;99.90
22288;DHT22;11312;51.464;6.968;2023-04-03T05:59:49;1.40;99.90
22288;DHT22;11312;51.464;6.968;2023-04-03T06:02:18;1.40;99.90
22288;DHT22;11312;51.464;6.968;2023-04-03T06:04:44;1.40;99.90
22288;DHT22;11312;51.464;6.968;2023-04-03T06:07:13;1.70;99.90
22288;DHT22;11312;51.464;6.968;2023-04-03T06:09:40;2.30;99.90
22288;DHT22;11312;51.464;6.968;2023-04-03T06:12:06;3.00;99.90
22288;DHT22;11312;51.464;6.968;2023-04-03T06:14:32;3.60;99.90
22288;DHT22;11312;51.464;6.968;2023-04-03T06:16:57;4.40;99.90
22288;DHT22;11312;51.464;6.968;2023-04-03T06:19:24;4.90;99.90
22288;DHT22;11312;51.464;6.968;2023-04-03T06:21:51;5.30;99.90
22288;DHT22;11312;51.464;6.968;2023-04-03T06:24:17;5.60;99.90
22288;DHT22;11312;51.464;6.968;2023-04-03T06:26:43;5.80;99.90
22288;DHT22;11312;51.464;6.968;2023-04-03T06:29:09;6.40;99.90
22288;DHT22;11312;51.464;6.968;2023-04-03T06:31:35;6.60;99.90
22288;DHT22;11312;51.464;6.968;2023-04-03T06:34:04;6.40;99.90
22288;DHT22;11312;51.464;6.968;2023-04-03T06:36:31;5.40;99.90
22288;DHT22;11312;51.464;6.968;2023-04-03T06:38:58;6.70;99.90
22288;DHT22;11312;51.464;6.968;2023-04-03T06:41:23;7.30;99.90
22288;DHT22;11312;51.464;6.968;2023-04-03T06:43:49;7.70;99.90
22288;DHT22;11312;51.464;6.968;2023-04-03T06:46:21;7.70;99.90
22288;DHT22;11312;51.464;6.968;2023-04-03T06:48:48;7.30;99.90
22288;DHT22;11312;51.464;6.968;2023-04-03T06:51:19;8.00;99.90
22288;DHT22;11312;51.464;6.968;2023-04-03T06:53:45;8.60;99.90
22288;DHT22;11312;51.464;6.968;2023-04-03T06:56:11;7.80;99.90
22288;DHT22;11312;51.464;6.968;2023-04-03T06:58:37;7.00;99.90
22288;DHT22;11312;51.464;6.968;2023-04-03T07:01:02;8.40;99.90
22288;DHT22;11312;51.464;6.968;2023-04-03T07:03:28;8.30;99.90
22288;DHT22;11312;51.464;6.968;2023-04-03T07:05:54;8.70;99.90
22288;DHT22;11312;51.464;6.968;2023-04-03T07:08:19;7.10;99.90
22288;DHT22;11312;51.464;6.968;2023-04-03T07:10:45;8.40;99.90
22288;DHT22;11312;51.464;6.968;2023-04-03T07:13:10;8.90;99.90
22288;DHT22;11312;51.464;6.968;2023-04-03T07:15:36;9.30;99.90
22288;DHT22;11312;51.464;6.968;2023-04-03T07:18:02;9.80;99.90
22288;DHT22;11312;51.464;6.968;2023-04-03T07:20:28;9.60;99.90
22288;DHT22;11312;51.464;6.968;2023-04-03T07:22:53;8.40;99.90
22288;DHT22;11312;51.464;6.968;2023-04-03T07:25:19;8.30;99.90
22288;DHT22;11312;51.464;6.968;2023-04-03T07:27:45;8.90;99.90
22288;DHT22;11312;51.464;6.968;2023-04-03T07:30:11;9.60;99.90
22288;DHT22;11312;51.464;6.968;2023-04-03T07:32:37;10.90;99.90
22288;DHT22;11312;51.464;6.968;2023-04-03T07:35:03;10.90;99.90
22288;DHT22;11312;51.464;6.968;2023-04-03T07:37:29;11.40;99.90
22288;DHT22;11312;51.464;6.968;2023-04-03T07:39:55;11.40;99.90
22288;DHT22;11312;51.464;6.968;2023-04-03T07:42:22;11.40;99.90
22288;DHT22;11312;51.464;6.968;2023-04-03T07:44:48;10.40;99.90
22288;DHT22;11312;51.464;6.968;2023-04-03T07:47:13;10.50;99.90
22288;DHT22;11312;51.464;6.968;2023-04-03T07:49:41;10.30;99.90
22288;DHT22;11312;51.464;6.968;2023-04-03T07:52:07;10.50;99.90
22288;DHT22;11312;51.464;6.968;2023-04-03T07:54:34;10.00;99.90
22288;DHT22;11312;51.464;6.968;2023-04-03T07:57:00;10.90;99.90
22288;DHT22;11312;51.464;6.968;2023-04-03T07:59:26;11.40;99.90
22288;DHT22;11312;51.464;6.968;2023-04-03T08:01:52;11.10;99.90
22288;DHT22;11312;51.464;6.968;2023-04-03T08:04:18;12.40;99.90
22288;DHT22;11312;51.464;6.968;2023-04-03T08:06:43;12.30;99.90
22288;DHT22;11312;51.464;6.968;2023-04-03T08:09:09;12.40;99.90
22288;DHT22;11312;51.464;6.968;2023-04-03T08:11:36;12.90;99.90
22288;DHT22;11312;51.464;6.968;2023-04-03T08:14:03;13.10;99.90
22288;DHT22;11312;51.464;6.968;2023-04-03T08:16:29;11.80;99.90
22288;DHT22;11312;51.464;6.968;2023-04-03T08:18:55;12.20;98.60
22288;DHT22;11312;51.464;6.968;2023-04-03T08:21:21;11.90;99.60
22288;DHT22;11312;51.464;6.968;2023-04-03T08:23:49;12.90;99.90
22288;DHT22;11312;51.464;6.968;2023-04-03T08:26:18;12.50;99.90
22288;DHT22;11312;51.464;6.968;2023-04-03T08:28:44;12.70;98.60
22288;DHT22;11312;51.464;6.968;2023-04-03T08:31:12;12.30;99.90
22288;DHT22;11312;51.464;6.968;2023-04-03T08:33:39;12.80;98.70
22288;DHT22;11312;51.464;6.968;2023-04-03T08:36:05;12.70;99.90
22288;DHT22;11312;51.464;6.968;2023-04-03T08:38:32;10.60;97.00
22288;DHT22;11312;51.464;6.968;2023-04-03T08:41:29;11.00;99.90
22288;DHT22;11312;51.464;6.968;2023-04-03T08:44:17;11.40;96.00
22288;DHT22;11312;51.464;6.968;2023-04-03T08:49:48;12.50;97.50
22288;DHT22;11312;51.464;6.968;2023-04-03T08:55:06;12.90;98.20
22288;DHT22;11312;51.464;6.968;2023-04-03T08:57:40;12.40;91.90
22288;DHT22;11312;51.464;6.968;2023-04-03T09:00:18;13.90;97.20
22288;DHT22;11312;51.464;6.968;2023-04-03T09:02:54;13.60;93.80
22288;DHT22;11312;51.464;6.968;2023-04-03T09:07:52;10.90;90.20
22288;DHT22;11312;51.464;6.968;2023-04-03T09:10:28;10.70;88.00
22288;DHT22;11312;51.464;6.968;2023-04-03T09:15:46;12.30;90.10
22288;DHT22;11312;51.464;6.968;2023-04-03T09:18:20;11.10;85.00
22288;DHT22;11312;51.464;6.968;2023-04-03T09:21:08;12.30;91.80
22288;DHT22;11312;51.464;6.968;2023-04-03T09:23:59;13.00;91.10
22288;DHT22;11312;51.464;6.968;2023-04-03T09:26:31;13.40;86.00
22288;DHT22;11312;51.464;6.968;2023-04-03T09:29:06;13.00;82.70
22288;DHT22;11312;51.464;6.968;2023-04-03T09:31:43;13.90;90.70
22288;DHT22;11312;51.464;6.968;2023-04-03T09:34:37;14.30;90.50
22288;DHT22;11312;51.464;6.968;2023-04-03T09:37:04;13.30;81.50
22288;DHT22;11312;51.464;6.968;2023-04-03T09:39:54;14.60;91.40
22288;DHT22;11312;51.464;6.968;2023-04-03T09:42:23;14.80;90.80
22288;DHT22;11312;51.464;6.968;2023-04-03T09:47:30;14.40;80.40
22288;DHT22;11312;51.464;6.968;2023-04-03T09:52:47;14.30;81.10
22288;DHT22;11312;51.464;6.968;2023-04-03T09:55:26;14.40;81.60
22288;DHT22;11312;51.464;6.968;2023-04-03T09:58:02;12.70;71.20
22288;DHT22;11312;51.464;6.968;2023-04-03T10:00:38;11.40;70.60
22288;DHT22;11312;51.464;6.968;2023-04-03T10:03:06;12.30;75.80
22288;DHT22;11312;51.464;6.968;2023-04-03T10:05:48;11.70;77.40
22288;DHT22;11312;51.464;6.968;2023-04-03T10:10:42;14.10;78.40
22288;DHT22;11312;51.464;6.968;2023-04-03T10:13:14;14.20;79.20
22288;DHT22;11312;51.464;6.968;2023-04-03T10:15:49;14.30;76.40
22288;DHT22;11312;51.464;6.968;2023-04-03T10:18:41;13.00;69.80
22288;DHT22;11312;51.464;6.968;2023-04-03T10:32:50;12.40;74.30
22288;DHT22;11312;51.464;6.968;2023-04-03T10:38:38;12.40;73.00
22288;DHT22;11312;51.464;6.968;2023-04-03T10:41:21;15.20;79.00
22288;DHT22;11312;51.464;6.968;2023-04-03T10:47:10;13.00;72.70
22288;DHT22;11312;51.464;6.968;2023-04-03T10:50:30;14.40;77.90
22288;DHT22;11312;51.464;6.968;2023-04-03T10:55:37;14.40;81.80
22288;DHT22;11312;51.464;6.968;2023-04-03T10:58:25;15.30;75.90
22288;DHT22;11312;51.464;6.968;2023-04-03T11:00:53;15.20;80.90
22288;DHT22;11312;51.464;6.968;2023-04-03T11:03:29;18.50;95.10
22288;DHT22;11312;51.464;6.968;2023-04-03T11:05:57;16.30;80.30
22288;DHT22;11312;51.464;6.968;2023-04-03T11:09:02;16.90;94.80
22288;DHT22;11312;51.464;6.968;2023-04-03T11:11:37;16.90;81.80
22288;DHT22;11312;51.464;6.968;2023-04-03T11:14:33;17.50;79.20
22288;DHT22;11312;51.464;6.968;2023-04-03T11:17:05;17.30;77.60
22288;DHT22;11312;51.464;6.968;2023-04-03T11:22:30;18.70;77.50
22288;DHT22;11312;51.464;6.968;2023-04-03T11:27:59;17.20;67.30
22288;DHT22;11312;51.464;6.968;2023-04-03T11:33:44;17.90;79.30
22288;DHT22;11312;51.464;6.968;2023-04-03T11:36:29;18.80;72.10
22288;DHT22;11312;51.464;6.968;2023-04-03T11:38:59;15.80;68.70
22288;DHT22;11312;51.464;6.968;2023-04-03T11:41:31;16.60;72.30
22288;DHT22;11312;51.464;6.968;2023-04-03T11:44:03;18.50;72.60
22288;DHT22;11312;51.464;6.968;2023-04-03T11:46:58;19.60;73.90
22288;DHT22;11312;51.464;6.968;2023-04-03T11:49:56;18.60;65.40
22288;DHT22;11312;51.464;6.968;2023-04-03T12:16:25;20.10;59.70
22288;DHT22;11312;51.464;6.968;2023-04-03T12:40:00;21.20;53.50
22288;DHT22;11312;51.464;6.968;2023-04-03T12:45:23;23.10;56.70
22288;DHT22;11312;51.464;6.968;2023-04-03T12:47:52;23.30;52.80
22288;DHT22;11312;51.464;6.968;2023-04-03T12:53:13;23.10;51.10
22288;DHT22;11312;51.464;6.968;2023-04-03T12:55:38;22.40;53.50
22288;DHT22;11312;51.464;6.968;2023-04-03T12:58:22;24.30;53.20
22288;DHT22;11312;51.464;6.968;2023-04-03T13:01:11;23.00;52.50
22288;DHT22;11312;51.464;6.968;2023-04-03T13:03:37;23.30;50.70
22288;DHT22;11312;51.464;6.968;2023-04-03T13:06:04;22.50;49.80
22288;DHT22;11312;51.464;6.968;2023-04-03T13:08:31;22.60;49.40
22288;DHT22;11312;51.464;6.968;2023-04-03T13:11:08;18.80;46.50
22288;DHT22;11312;51.464;6.968;2023-04-03T13:13:35;18.70;53.50
22288;DHT22;11312;51.464;6.968;2023-04-03T13:16:08;19.60;51.40
22288;DHT22;11312;51.464;6.968;2023-04-03T13:18:37;19.00;51.50
22288;DHT22;11312;51.464;6.968;2023-04-03T13:21:07;19.30;52.60
22288;DHT22;11312;51.464;6.968;2023-04-03T13:23:36;17.70;50.40
22288;DHT22;11312;51.464;6.968;2023-04-03T13:26:05;18.40;53.50
22288;DHT22;11312;51.464;6.968;2023-04-03T13:28:33;20.10;51.90
22288;DHT22;11312;51.464;6.968;2023-04-03T13:33:36;20.50;50.60
22288;DHT22;11312;51.464;6.968;2023-04-03T13:36:21;20.00;49.00
22288;DHT22;11312;51.464;6.968;2023-04-03T13:38:59;18.30;51.40
22288;DHT22;11312;51.464;6.968;2023-04-03T13:41:33;18.60;51.60
22288;DHT22;11312;51.464;6.968;2023-04-03T13:44:16;20.10;53.80
22288;DHT22;11312;51.464;6.968;2023-04-03T13:46:42;19.20;51.30
22288;DHT22;11312;51.464;6.968;2023-04-03T13:49:26;16.60;52.20
22288;DHT22;11312;51.464;6.968;2023-04-03T13:51:53;15.30;53.20
22288;DHT22;11312;51.464;6.968;2023-04-03T13:56:57;16.30;56.50
22288;DHT22;11312;51.464;6.968;2023-04-03T13:59:35;16.00;55.60
22288;DHT22;11312;51.464;6.968;2023-04-03T14:04:31;16.90;57.90
22288;DHT22;11312;51.464;6.968;2023-04-03T14:06:58;20.00;56.00
22288;DHT22;11312;51.464;6.968;2023-04-03T14:09:26;20.30;55.60
22288;DHT22;11312;51.464;6.968;2023-04-03T14:11:58;19.00;50.90
22288;DHT22;11312;51.464;6.968;2023-04-03T14:14:34;17.10;51.60
22288;DHT22;11312;51.464;6.968;2023-04-03T14:17:03;18.40;56.70
22288;DHT22;11312;51.464;6.968;2023-04-03T14:19:35;19.00;53.40
22288;DHT22;11312;51.464;6.968;2023-04-03T14:22:15;20.00;56.20
22288;DHT22;11312;51.464;6.968;2023-04-03T14:24:41;20.30;55.40
22288;DHT22;11312;51.464;6.968;2023-04-03T14:27:15;20.70;53.50
22288;DHT22;11312;51.464;6.968;2023-04-03T14:29:42;17.30;50.90
22288;DHT22;11312;51.464;6.968;2023-04-03T14:32:11;16.70;56.90
22288;DHT22;11312;51.464;6.968;2023-04-03T14:34:38;17.90;57.80
22288;DHT22;11312;51.464;6.968;2023-04-03T14:37:05;15.90;55.40
22288;DHT22;11312;51.464;6.968;2023-04-03T14:39:31;17.50;58.10
22288;DHT22;11312;51.464;6.968;2023-04-03T14:41:56;18.90;57.80
22288;DHT22;11312;51.464;6.968;2023-04-03T14:44:22;19.90;57.00
22288;DHT22;11312;51.464;6.968;2023-04-03T14:46:48;18.50;54.00
22288;DHT22;11312;51.464;6.968;2023-04-03T14:49:17;16.60;56.70
22288;DHT22;11312;51.464;6.968;2023-04-03T14:51:44;15.80;58.70
22288;DHT22;11312;51.464;6.968;2023-04-03T14:54:15;15.80;63.10
22288;DHT22;11312;51.464;6.968;2023-04-03T14:56:41;14.70;62.80
22288;DHT22;11312;51.464;6.968;2023-04-03T14:59:11;12.40;62.20
22288;DHT22;11312;51.464;6.968;2023-04-03T15:01:36;12.80;68.60
22288;DHT22;11312;51.464;6.968;2023-04-03T15:04:10;13.00;68.70
22288;DHT22;11312;51.464;6.968;2023-04-03T15:06:35;14.10;78.20
22288;DHT22;11312;51.464;6.968;2023-04-03T15:09:01;13.80;70.80
22288;DHT22;11312;51.464;6.968;2023-04-03T15:11:28;13.30;71.30
22288;DHT22;11312;51.464;6.968;2023-04-03T15:13:54;12.80;70.00
22288;DHT22;11312;51.464;6.968;2023-04-03T15:16:20;11.70;68.40
22288;DHT22;11312;51.464;6.968;2023-04-03T15:18:47;11.90;71.80
22288;DHT22;11312;51.464;6.968;2023-04-03T15:21:12;12.20;73.70
22288;DHT22;11312;51.464;6.968;2023-04-03T15:23:38;11.80;71.20
22288;DHT22;11312;51.464;6.968;2023-04-03T15:26:04;11.10;69.70
22288;DHT22;11312;51.464;6.968;2023-04-03T15:28:40;11.00;72.20
22288;DHT22;11312;51.464;6.968;2023-04-03T15:31:07;11.60;75.20
22288;DHT22;11312;51.464;6.968;2023-04-03T15:33:34;10.50;71.40
22288;DHT22;11312;51.464;6.968;2023-04-03T15:36:00;10.30;72.50
22288;DHT22;11312;51.464;6.968;2023-04-03T15:38:26;11.00;74.60
22288;DHT22;11312;51.464;6.968;2023-04-03T15:40:52;11.10;74.80
22288;DHT22;11312;51.464;6.968;2023-04-03T15:43:18;10.30;73.50
22288;DHT22;11312;51.464;6.968;2023-04-03T15:45:45;10.90;77.70
22288;DHT22;11312;51.464;6.968;2023-04-03T15:48:11;9.90;73.40
22288;DHT22;11312;51.464;6.968;2023-04-03T15:50:38;10.00;76.00
22288;DHT22;11312;51.464;6.968;2023-04-03T15:53:03;9.40;75.60
22288;DHT22;11312;51.464;6.968;2023-04-03T15:55:32;9.70;76.60
22288;DHT22;11312;51.464;6.968;2023-04-03T15:57:58;9.70;76.20
22288;DHT22;11312;51.464;6.968;2023-04-03T16:00:25;10.00;77.60
22288;DHT22;11312;51.464;6.968;2023-04-03T16:02:55;9.80;75.70
22288;DHT22;11312;51.464;6.968;2023-04-03T16:05:21;9.30;75.30
22288;DHT22;11312;51.464;6.968;2023-04-03T16:07:47;9.70;78.70
22288;DHT22;11312;51.464;6.968;2023-04-03T16:10:16;9.90;78.90
22288;DHT22;11312;51.464;6.968;2023-04-03T16:12:41;9.50;75.60
22288;DHT22;11312;51.464;6.968;2023-04-03T16:15:07;9.50;76.20
22288;DHT22;11312;51.464;6.968;2023-04-03T16:17:34;9.40;76.60
22288;DHT22;11312;51.464;6.968;2023-04-03T16:20:01;9.40;76.60
22288;DHT22;11312;51.464;6.968;2023-04-03T16:22:27;9.70;78.10
22288;DHT22;11312;51.464;6.968;2023-04-03T16:24:54;9.50;78.10
22288;DHT22;11312;51.464;6.968;2023-04-03T16:27:20;9.30;78.40
22288;DHT22;11312;51.464;6.968;2023-04-03T16:29:46;8.90;78.00
22288;DHT22;11312;51.464;6.968;2023-04-03T16:32:13;8.90;78.50
22288;DHT22;11312;51.464;6.968;2023-04-03T16:34:39;9.10;79.20
22288;DHT22;11312;51.464;6.968;2023-04-03T16:37:06;9.20;79.40
22288;DHT22;11312;51.464;6.968;2023-04-03T16:39:34;8.80;77.60
22288;DHT22;11312;51.464;6.968;2023-04-03T16:42:00;8.60;79.00
22288;DHT22;11312;51.464;6.968;2023-04-03T16:44:26;8.90;78.30
22288;DHT22;11312;51.464;6.968;2023-04-03T16:46:52;8.60;78.40
22288;DHT22;11312;51.464;6.968;2023-04-03T16:49:17;8.70;79.40
22288;DHT22;11312;51.464;6.968;2023-04-03T16:51:43;8.50;80.30
22288;DHT22;11312;51.464;6.968;2023-04-03T16:54:09;8.70;81.70
22288;DHT22;11312;51.464;6.968;2023-04-03T16:56:36;8.70;82.90
22288;DHT22;11312;51.464;6.968;2023-04-03T16:59:02;8.30;80.40
22288;DHT22;11312;51.464;6.968;2023-04-03T17:01:28;8.50;82.30
22288;DHT22;11312;51.464;6.968;2023-04-03T17:03:54;8.70;84.10
22288;DHT22;11312;51.464;6.968;2023-04-03T17:06:21;8.80;83.50
22288;DHT22;11312;51.464;6.968;2023-04-03T17:08:50;8.40;80.80
22288;DHT22;11312;51.464;6.968;2023-04-03T17:11:17;8.60;81.40
22288;DHT22;11312;51.464;6.968;2023-04-03T17:13:43;8.50;79.70
22288;DHT22;11312;51.464;6.968;2023-04-03T17:16:12;8.30;79.40
22288;DHT22;11312;51.464;6.968;2023-04-03T17:18:38;8.50;81.70
22288;DHT22;11312;51.464;6.968;2023-04-03T17:21:04;8.10;80.00
22288;DHT22;11312;51.464;6.968;2023-04-03T17:23:31;8.00;80.90
22288;DHT22;11312;51.464;6.968;2023-04-03T17:25:59;8.00;82.20
22288;DHT22;11312;51.464;6.968;2023-04-03T17:28:24;7.90;82.30
22288;DHT22;11312;51.464;6.968;2023-04-03T17:30:57;7.90;82.70
22288;DHT22;11312;51.464;6.968;2023-04-03T17:33:24;8.00;82.60
22288;DHT22;11312;51.464;6.968;2023-04-03T17:35:51;8.00;82.40
22288;DHT22;11312;51.464;6.968;2023-04-03T17:38:17;7.80;81.20
22288;DHT22;11312;51.464;6.968;2023-04-03T17:40:43;7.80;82.30
22288;DHT22;11312;51.464;6.968;2023-04-03T17:43:10;7.50;82.10